createdAt,value
2022-12-15T00:01:58.239Z,35.57
2022-12-15T00:04:51.484Z,34.57
2022-12-15T00:07:43.550Z,33.13
2022-12-15T00:10:32.157Z,34.37
2022-12-15T00:13:18.235Z,34.50
2022-12-15T00:16:08.963Z,33.50
2022-12-15T00:18:56.228Z,34.17
2022-12-15T00:21:46.314Z,35.33
2022-12-15T00:24:35.845Z,34.63
2022-12-15T00:27:24.249Z,36.27
2022-12-15T00:30:11.540Z,34.53
2022-12-15T00:33:01.292Z,35.83
2022-12-15T00:35:51.430Z,34.93
2022-12-15T00:38:41.299Z,36.37
2022-12-15T00:41:12.011Z,35.70
2022-12-15T00:46:44.347Z,36.97
2022-12-15T00:49:32.693Z,37.00
2022-12-15T00:52:21.236Z,36.37
2022-12-15T00:55:09.103Z,37.03
2022-12-15T00:57:58.422Z,36.03
2022-12-15T01:00:47.401Z,36.50
2022-12-15T01:03:39.200Z,36.77
2022-12-15T01:06:34.811Z,37.63
2022-12-15T01:09:24.195Z,37.83
2022-12-15T01:12:12.622Z,37.40
2022-12-15T01:15:01.227Z,36.47
2022-12-15T01:17:50.270Z,36.27
2022-12-15T01:20:17.997Z,37.17
2022-12-15T01:22:55.854Z,38.70
2022-12-15T01:25:27.822Z,37.10
2022-12-15T01:27:55.875Z,37.00
2022-12-15T01:30:27.018Z,38.57
2022-12-15T01:32:54.831Z,38.00
2022-12-15T01:35:24.914Z,38.37
2022-12-15T01:37:55.839Z,37.67
2022-12-15T01:40:42.221Z,37.23
2022-12-15T01:43:18.296Z,38.20
2022-12-15T01:46:21.417Z,37.70
2022-12-15T01:49:11.870Z,37.80
2022-12-15T01:51:47.296Z,38.77
2022-12-15T01:54:21.066Z,38.13
2022-12-15T01:56:54.890Z,38.63
2022-12-15T01:59:46.906Z,38.20
2022-12-15T02:02:23.982Z,37.57
2022-12-15T02:04:55.033Z,38.77
2022-12-15T02:07:31.982Z,38.80
2022-12-15T02:10:01.969Z,38.07
2022-12-15T02:12:51.874Z,39.33
2022-12-15T02:15:52.946Z,37.70
2022-12-15T02:18:42.056Z,38.00
2022-12-15T02:22:01.289Z,39.03
2022-12-15T02:25:18.860Z,37.63
2022-12-15T02:28:12.520Z,37.00
2022-12-15T02:30:43.038Z,36.83
2022-12-15T02:33:31.006Z,37.33
2022-12-15T02:36:09.523Z,37.73
2022-12-15T02:38:43.377Z,37.17
2022-12-15T02:41:42.216Z,37.17
2022-12-15T02:44:37.248Z,38.07
2022-12-15T02:47:46.568Z,38.43
2022-12-15T02:51:03.058Z,38.23
2022-12-15T02:53:55.515Z,37.27
2022-12-15T02:56:56.412Z,39.37
2022-12-15T03:00:07.560Z,37.57
2022-12-15T03:02:42.006Z,38.17
2022-12-15T03:05:15.602Z,38.27
2022-12-15T03:10:26.622Z,36.63
2022-12-15T03:12:55.690Z,38.10
2022-12-15T03:15:28.058Z,37.27
2022-12-15T03:18:00.252Z,37.10
2022-12-15T03:20:29.800Z,38.07
2022-12-15T03:22:58.699Z,37.47
2022-12-15T03:25:26.769Z,37.63
2022-12-15T03:27:55.757Z,38.17
2022-12-15T03:30:25.651Z,35.90
2022-12-15T03:32:56.596Z,38.00
2022-12-15T03:35:26.672Z,37.23
2022-12-15T03:37:56.990Z,40.03
2022-12-15T03:40:25.717Z,37.60
2022-12-15T03:42:53.278Z,38.80
2022-12-15T03:45:25.748Z,37.13
2022-12-15T03:47:55.025Z,36.90
2022-12-15T03:50:33.462Z,38.10
2022-12-15T03:53:04.117Z,38.03
2022-12-15T03:55:35.915Z,38.07
2022-12-15T03:58:04.795Z,38.27
2022-12-15T04:00:35.203Z,36.77
2022-12-15T04:03:06.575Z,37.50
2022-12-15T04:05:36.099Z,38.47
2022-12-15T04:08:08.265Z,37.70
2022-12-15T04:10:39.708Z,37.90
2022-12-15T04:13:12.688Z,37.77
2022-12-15T04:15:43.662Z,38.90
2022-12-15T04:18:14.695Z,38.73
2022-12-15T04:20:46.898Z,38.10
2022-12-15T04:23:19.957Z,38.60
2022-12-15T04:26:10.336Z,40.43
2022-12-15T04:28:58.186Z,40.33
2022-12-15T04:31:49.740Z,40.57
2022-12-15T04:34:46.736Z,40.97
2022-12-15T04:37:33.160Z,41.33
2022-12-15T04:40:20.184Z,41.77
2022-12-15T04:43:09.702Z,42.80
2022-12-15T04:45:57.573Z,43.67
2022-12-15T04:48:44.684Z,42.63
2022-12-15T04:51:34.284Z,42.10
2022-12-15T04:54:22.255Z,42.60
2022-12-15T04:57:10.161Z,43.60
2022-12-15T05:00:03.262Z,43.90
2022-12-15T05:02:50.186Z,43.00
2022-12-15T05:05:40.166Z,44.07
2022-12-15T05:08:28.822Z,45.50
2022-12-15T05:11:18.156Z,43.30
2022-12-15T05:14:05.989Z,44.07
2022-12-15T05:16:55.284Z,43.83
2022-12-15T05:19:48.118Z,43.07
2022-12-15T05:22:36.171Z,43.63
2022-12-15T05:25:26.023Z,42.43
2022-12-15T05:28:15.467Z,42.97
2022-12-15T05:31:04.381Z,44.30
2022-12-15T05:33:34.026Z,44.93
2022-12-15T05:36:04.610Z,43.33
2022-12-15T05:38:32.741Z,42.30
2022-12-15T05:41:00.465Z,43.57
2022-12-15T05:43:29.616Z,42.53
2022-12-15T05:46:06.779Z,43.47
2022-12-15T05:48:37.042Z,40.30
2022-12-15T05:51:10.924Z,40.37
2022-12-15T05:53:41.363Z,40.87
2022-12-15T05:56:12.112Z,42.70
2022-12-15T05:58:45.461Z,41.87
2022-12-15T06:01:15.760Z,42.63
2022-12-15T06:03:49.472Z,44.07
2022-12-15T06:06:21.464Z,42.13
2022-12-15T06:08:50.464Z,41.17
2022-12-15T06:11:20.102Z,41.63
2022-12-15T06:13:47.677Z,41.23
2022-12-15T06:16:19.321Z,39.63
2022-12-15T06:18:58.459Z,38.23
2022-12-15T06:21:35.879Z,38.87
2022-12-15T06:24:05.471Z,37.93
2022-12-15T06:26:36.174Z,39.90
2022-12-15T06:29:08.633Z,39.37
2022-12-15T06:31:41.011Z,36.50
2022-12-15T06:34:14.275Z,36.67
2022-12-15T06:36:44.416Z,36.23
2022-12-15T06:39:17.384Z,35.27
2022-12-15T06:41:49.351Z,32.73
2022-12-15T06:44:18.084Z,32.47
2022-12-15T06:46:49.390Z,33.27
2022-12-15T06:49:17.719Z,31.70
2022-12-15T06:51:46.067Z,31.83
2022-12-15T06:54:16.119Z,33.00
2022-12-15T06:59:34.547Z,30.53
2022-12-15T07:02:06.456Z,30.40
2022-12-15T07:04:37.663Z,30.73
2022-12-15T07:07:16.907Z,31.43
2022-12-15T07:09:45.681Z,30.80
2022-12-15T07:12:14.291Z,30.00
2022-12-15T07:14:44.817Z,31.87
2022-12-15T07:17:23.452Z,31.63
2022-12-15T07:19:55.953Z,33.23
2022-12-15T07:22:27.104Z,33.10
2022-12-15T07:24:55.498Z,32.33
2022-12-15T07:27:25.296Z,31.80
2022-12-15T07:29:53.851Z,31.57
2022-12-15T07:32:22.608Z,30.07
2022-12-15T07:34:52.352Z,30.30
2022-12-15T07:37:21.688Z,30.13
2022-12-15T07:39:52.454Z,29.97
2022-12-15T07:42:26.004Z,30.23
2022-12-15T07:44:55.065Z,28.77
2022-12-15T07:47:25.051Z,29.33
2022-12-15T07:49:55.286Z,29.23
2022-12-15T07:52:24.252Z,30.57
2022-12-15T07:54:51.668Z,30.63
2022-12-15T07:57:23.389Z,35.63
2022-12-15T07:59:51.880Z,34.47
2022-12-15T08:02:21.091Z,31.50
2022-12-15T08:04:53.608Z,39.07
2022-12-15T08:07:25.081Z,127.10
2022-12-15T08:10:02.352Z,80.23
2022-12-15T08:12:31.328Z,45.23
2022-12-15T08:14:59.685Z,31.07
2022-12-15T08:17:30.414Z,33.30
2022-12-15T08:20:09.510Z,34.13
2022-12-15T08:22:38.472Z,36.43
2022-12-15T08:25:05.928Z,35.13
2022-12-15T08:27:34.778Z,36.40
2022-12-15T08:30:04.754Z,35.37
2022-12-15T08:32:36.457Z,35.47
2022-12-15T08:35:25.442Z,39.40
2022-12-15T08:37:59.847Z,34.17
2022-12-15T08:40:32.877Z,32.83
2022-12-15T08:43:00.239Z,35.87
2022-12-15T08:45:29.290Z,41.70
2022-12-15T08:48:01.351Z,39.10
2022-12-15T08:50:30.087Z,56.67
2022-12-15T08:53:29.172Z,40.23
2022-12-15T08:55:50.604Z,34.27
2022-12-15T08:58:22.552Z,34.33
2022-12-15T09:00:51.802Z,32.27
2022-12-15T09:03:22.906Z,33.17
2022-12-15T09:05:52.751Z,32.87
2022-12-15T09:08:24.907Z,32.50
2022-12-15T09:10:55.702Z,33.13
2022-12-15T09:13:26.297Z,40.17
2022-12-15T09:16:15.973Z,36.90
2022-12-15T09:18:48.320Z,31.63
2022-12-15T09:21:18.872Z,31.00
2022-12-15T09:23:56.179Z,31.03
2022-12-15T09:26:26.208Z,31.33
2022-12-15T09:31:42.744Z,30.93
2022-12-15T09:34:15.952Z,35.93
2022-12-15T09:36:50.576Z,32.97
2022-12-15T09:39:19.525Z,33.40
2022-12-15T09:42:00.354Z,33.43
2022-12-15T09:44:30.181Z,31.43
2022-12-15T09:47:40.860Z,32.33
2022-12-15T09:50:15.453Z,30.47
2022-12-15T09:52:55.907Z,30.20
2022-12-15T09:55:30.780Z,29.83
2022-12-15T09:58:37.946Z,29.67
2022-12-15T10:01:31.989Z,30.27
2022-12-15T10:04:40.589Z,30.27
2022-12-15T10:07:39.451Z,29.67
2022-12-15T10:10:29.732Z,29.93
2022-12-15T10:13:05.766Z,30.67
2022-12-15T10:15:55.178Z,29.93
2022-12-15T10:21:38.281Z,34.37
2022-12-15T10:24:14.943Z,34.07
2022-12-15T10:26:47.092Z,35.63
2022-12-15T10:29:28.248Z,34.40
2022-12-15T10:32:50.940Z,34.97
2022-12-15T10:35:30.329Z,34.63
2022-12-15T10:38:01.037Z,34.20
2022-12-15T10:41:01.232Z,33.60
2022-12-15T10:43:39.555Z,32.73
2022-12-15T10:46:19.150Z,35.33
2022-12-15T10:49:00.286Z,34.70
2022-12-15T10:51:44.825Z,36.10
2022-12-15T10:54:19.264Z,34.73
2022-12-15T10:56:59.885Z,36.10
2022-12-15T10:59:38.668Z,36.70
2022-12-15T11:02:35.584Z,35.60
2022-12-15T11:05:17.602Z,34.60
2022-12-15T11:08:17.222Z,36.07
2022-12-15T11:11:18.761Z,37.47
2022-12-15T11:14:10.588Z,38.07
2022-12-15T11:16:52.748Z,38.57
2022-12-15T11:20:02.272Z,39.83
2022-12-15T11:22:44.636Z,40.07
2022-12-15T11:25:46.628Z,40.80
2022-12-15T11:28:20.807Z,40.43
2022-12-15T11:31:02.315Z,40.47
2022-12-15T11:33:30.140Z,40.53
2022-12-15T11:36:33.032Z,41.17
2022-12-15T11:39:18.090Z,41.17
2022-12-15T11:42:00.413Z,40.40
2022-12-15T11:44:54.893Z,40.73
2022-12-15T11:47:29.448Z,40.47
2022-12-15T11:50:19.313Z,39.83
2022-12-15T11:53:16.934Z,42.07
2022-12-15T11:56:03.804Z,41.73
2022-12-15T11:59:19.239Z,41.43
2022-12-15T12:02:25.423Z,40.93
2022-12-15T12:05:25.641Z,43.40
2022-12-15T12:08:18.335Z,43.20
2022-12-15T12:11:20.665Z,43.83
2022-12-15T12:13:59.943Z,42.67
2022-12-15T12:17:14.176Z,41.47
2022-12-15T12:19:54.230Z,42.63
2022-12-15T12:22:52.788Z,43.83
2022-12-15T12:25:27.044Z,43.30
2022-12-15T12:27:58.536Z,44.17
2022-12-15T12:30:51.046Z,45.30
2022-12-15T12:33:39.078Z,47.40
2022-12-15T12:36:13.033Z,44.70
2022-12-15T12:38:51.177Z,43.67
2022-12-15T12:41:48.893Z,45.50
2022-12-15T12:44:38.123Z,43.60
2022-12-15T12:47:28.349Z,44.53
2022-12-15T12:50:02.233Z,44.97
2022-12-15T12:53:02.010Z,44.23
2022-12-15T12:55:42.573Z,44.37
2022-12-15T12:58:44.758Z,43.13
2022-12-15T13:01:40.710Z,45.17
2022-12-15T13:04:17.713Z,41.40
2022-12-15T13:06:47.243Z,43.37
2022-12-15T13:09:36.783Z,46.43
2022-12-15T13:12:27.497Z,45.47
2022-12-15T13:14:58.425Z,44.27
2022-12-15T13:17:32.991Z,45.27
2022-12-15T13:20:03.460Z,45.73
2022-12-15T13:22:40.023Z,44.93
2022-12-15T13:25:53.659Z,44.20
2022-12-15T13:28:43.462Z,43.07
2022-12-15T13:31:32.692Z,42.33
2022-12-15T13:34:13.334Z,44.77
2022-12-15T13:36:46.150Z,42.37
2022-12-15T13:39:31.788Z,44.20
2022-12-15T13:42:33.539Z,43.80
2022-12-15T13:45:31.514Z,42.57
2022-12-15T13:48:06.449Z,43.17
2022-12-15T13:50:44.117Z,45.17
2022-12-15T13:53:30.191Z,45.30
2022-12-15T13:56:09.753Z,45.73
2022-12-15T13:58:49.121Z,46.07
2022-12-15T14:01:27.268Z,48.60
2022-12-15T14:04:03.744Z,48.63
2022-12-15T14:06:40.483Z,49.87
2022-12-15T14:09:14.221Z,49.10
2022-12-15T14:14:39.415Z,48.70
2022-12-15T14:17:17.861Z,49.83
2022-12-15T14:19:55.550Z,50.83
2022-12-15T14:22:30.544Z,49.23
2022-12-15T14:25:25.311Z,52.03
2022-12-15T14:27:52.693Z,50.27
2022-12-15T14:30:39.763Z,50.10
2022-12-15T14:33:14.726Z,50.77
2022-12-15T14:35:49.536Z,51.50
2022-12-15T14:38:49.251Z,49.40
2022-12-15T14:41:28.853Z,49.87
2022-12-15T14:44:36.960Z,49.73
2022-12-15T14:46:57.075Z,53.07
2022-12-15T14:49:51.903Z,50.17
2022-12-15T14:52:35.098Z,51.57
2022-12-15T14:55:32.547Z,52.03
2022-12-15T14:58:03.731Z,51.87
2022-12-15T15:00:49.314Z,52.60
2022-12-15T15:03:11.193Z,51.83
2022-12-15T15:03:28.803Z,50.10
2022-12-15T15:06:00.053Z,50.50
2022-12-15T15:08:39.405Z,51.90
2022-12-15T15:11:29.821Z,51.30
2022-12-15T15:14:03.370Z,50.27
2022-12-15T15:16:31.161Z,50.07
2022-12-15T15:19:05.128Z,52.13
2022-12-15T15:21:39.131Z,51.77
2022-12-15T15:24:28.449Z,51.73
2022-12-15T15:27:34.943Z,50.70
2022-12-15T15:30:40.496Z,49.03
2022-12-15T15:33:09.960Z,50.97
2022-12-15T15:35:39.076Z,52.73
2022-12-15T15:38:25.914Z,50.93
2022-12-15T15:40:58.467Z,52.07
2022-12-15T15:43:28.244Z,51.97
2022-12-15T15:46:17.456Z,50.00
2022-12-15T15:49:10.321Z,50.30
2022-12-15T15:51:39.542Z,50.00
2022-12-15T15:54:13.105Z,52.13
2022-12-15T15:56:44.334Z,50.90
2022-12-15T15:59:18.329Z,51.37
2022-12-15T16:01:58.826Z,51.57
2022-12-15T16:04:29.073Z,51.60
2022-12-15T16:06:59.897Z,50.37
2022-12-15T16:09:27.835Z,51.63
2022-12-15T16:11:58.199Z,51.47
2022-12-15T16:14:29.028Z,52.00
2022-12-15T16:17:07.548Z,53.37
2022-12-15T16:19:39.628Z,53.93
2022-12-15T16:22:18.237Z,52.60
2022-12-15T16:24:48.767Z,54.30
2022-12-15T16:27:19.174Z,52.63
2022-12-15T16:29:50.276Z,52.13
2022-12-15T16:32:22.468Z,51.10
2022-12-15T16:34:52.605Z,52.70
2022-12-15T16:37:32.497Z,51.73
2022-12-15T16:40:18.296Z,51.30
2022-12-15T16:42:56.611Z,53.83
2022-12-15T16:45:30.026Z,50.57
2022-12-15T16:47:59.767Z,50.87
2022-12-15T16:50:41.095Z,47.70
2022-12-15T16:53:23.508Z,47.83
2022-12-15T16:55:55.186Z,48.20
2022-12-15T16:58:25.834Z,46.97
2022-12-15T17:00:56.987Z,47.47
2022-12-15T17:03:28.655Z,48.93
2022-12-15T17:06:01.130Z,47.83
2022-12-15T17:09:02.519Z,49.17
2022-12-15T17:11:30.941Z,50.77
2022-12-15T17:14:00.879Z,49.40
2022-12-15T17:16:31.407Z,47.97
2022-12-15T17:18:59.594Z,47.50
2022-12-15T17:21:36.536Z,48.60
2022-12-15T17:24:10.163Z,48.50
2022-12-15T17:26:40.253Z,46.30
2022-12-15T17:29:18.296Z,46.43
2022-12-15T17:31:47.522Z,47.90
2022-12-15T17:34:36.297Z,48.73
2022-12-15T17:37:14.211Z,47.33
2022-12-15T17:39:51.223Z,46.27
2022-12-15T17:42:22.184Z,46.70
2022-12-15T17:44:52.814Z,46.93
2022-12-15T17:47:26.347Z,48.17
2022-12-15T17:49:55.113Z,46.47
2022-12-15T17:52:34.470Z,46.87
2022-12-15T17:55:30.328Z,47.80
2022-12-15T17:58:19.747Z,45.07
2022-12-15T18:01:04.286Z,47.00
2022-12-15T18:03:35.380Z,46.87
2022-12-15T18:06:04.352Z,49.20
2022-12-15T18:08:36.572Z,48.87
2022-12-15T18:11:06.054Z,47.73
2022-12-15T18:13:35.665Z,52.90
2022-12-15T18:16:04.007Z,50.63
2022-12-15T18:18:34.117Z,54.00
2022-12-15T18:21:18.181Z,51.80
2022-12-15T18:23:50.260Z,51.30
2022-12-15T18:29:10.314Z,50.80
2022-12-15T18:31:38.831Z,52.07
2022-12-15T18:34:16.041Z,52.10
2022-12-15T18:36:45.731Z,49.97
2022-12-15T18:39:26.429Z,52.63
2022-12-15T18:41:57.367Z,53.07
2022-12-15T18:44:32.110Z,50.17
2022-12-15T18:47:01.234Z,50.10
2022-12-15T18:49:31.055Z,50.13
2022-12-15T18:52:01.485Z,48.43
2022-12-15T18:54:34.308Z,49.10
2022-12-15T18:57:03.640Z,47.33
2022-12-15T18:59:32.167Z,48.13
2022-12-15T19:02:02.617Z,49.87
2022-12-15T19:04:36.691Z,49.50
2022-12-15T19:07:11.717Z,49.47
2022-12-15T19:09:44.356Z,48.20
2022-12-15T19:12:21.927Z,48.27
2022-12-15T19:14:52.797Z,48.97
2022-12-15T19:17:44.791Z,46.60
2022-12-15T19:20:40.110Z,46.07
2022-12-15T19:23:10.529Z,42.63
2022-12-15T19:25:40.052Z,43.37
2022-12-15T19:28:21.859Z,43.77
2022-12-15T19:30:51.036Z,41.63
2022-12-15T19:33:22.350Z,44.23
2022-12-15T19:35:52.429Z,41.90
2022-12-15T19:38:33.318Z,42.97
2022-12-15T19:41:02.714Z,43.50
2022-12-15T19:43:31.631Z,44.33
2022-12-15T19:46:04.603Z,44.40
2022-12-15T19:48:33.164Z,45.40
2022-12-15T19:51:06.195Z,42.20
2022-12-15T19:53:38.885Z,46.30
2022-12-15T19:56:24.271Z,43.87
2022-12-15T19:58:52.295Z,45.73
2022-12-15T20:01:22.163Z,45.07
2022-12-15T20:03:57.578Z,44.53
2022-12-15T20:06:31.974Z,45.10
2022-12-15T20:09:03.487Z,46.30
2022-12-15T20:11:33.526Z,50.53
2022-12-15T20:14:12.252Z,48.17
2022-12-15T20:16:41.197Z,49.77
2022-12-15T20:19:10.952Z,50.53
2022-12-15T20:21:41.219Z,47.87
2022-12-15T20:24:21.418Z,47.37
2022-12-15T20:26:51.175Z,45.47
2022-12-15T20:29:31.974Z,43.60
2022-12-15T20:32:00.885Z,44.93
2022-12-15T20:37:33.072Z,43.53
2022-12-15T20:40:01.940Z,43.63
2022-12-15T20:42:41.483Z,45.00
2022-12-15T20:45:17.334Z,44.60
2022-12-15T20:47:48.120Z,46.03
2022-12-15T20:50:36.844Z,46.13
2022-12-15T20:53:25.543Z,48.10
2022-12-15T20:55:55.444Z,46.77
2022-12-15T20:58:32.746Z,45.67
2022-12-15T21:01:01.484Z,43.80
2022-12-15T21:03:32.948Z,47.13
2022-12-15T21:06:01.668Z,45.07
2022-12-15T21:08:32.275Z,47.03
2022-12-15T21:11:26.188Z,44.27
2022-12-15T21:13:56.718Z,45.87
2022-12-15T21:16:28.321Z,45.40
2022-12-15T21:24:42.156Z,47.73
2022-12-15T21:27:22.430Z,46.87
2022-12-15T21:29:53.219Z,48.87
2022-12-15T21:32:22.956Z,48.17
2022-12-15T21:34:51.741Z,50.33
2022-12-15T21:37:30.939Z,50.20
2022-12-15T21:40:01.676Z,50.30
2022-12-15T21:42:36.632Z,48.80
2022-12-15T21:45:19.189Z,47.33
2022-12-15T21:48:07.435Z,49.07
2022-12-15T21:50:45.104Z,49.33
2022-12-15T21:53:16.877Z,48.90
2022-12-15T21:55:47.433Z,48.67
2022-12-15T21:58:22.430Z,47.50
2022-12-15T22:00:53.113Z,47.17
2022-12-15T22:03:22.954Z,47.00
2022-12-15T22:05:51.419Z,49.30
2022-12-15T22:08:22.136Z,48.13
2022-12-15T22:10:52.058Z,49.97
2022-12-15T22:13:23.382Z,48.17
2022-12-15T22:15:52.600Z,48.77
2022-12-15T22:18:25.854Z,46.97
2022-12-15T22:20:57.139Z,49.13
2022-12-15T22:23:27.464Z,47.20
2022-12-15T22:25:58.489Z,49.73
2022-12-15T22:28:29.192Z,48.73
2022-12-15T22:30:57.857Z,49.67
2022-12-15T22:33:30.280Z,50.07
2022-12-15T22:36:01.290Z,48.70
2022-12-15T22:38:32.763Z,49.07
2022-12-15T22:41:05.169Z,49.13
2022-12-15T22:43:41.136Z,47.17
2022-12-15T22:46:13.044Z,46.93
2022-12-15T22:48:44.275Z,46.97
2022-12-15T22:51:15.304Z,48.23
2022-12-15T22:53:46.821Z,49.57
2022-12-15T22:59:09.172Z,46.77
2022-12-15T23:01:36.904Z,48.57
2022-12-15T23:04:06.885Z,47.67
2022-12-15T23:06:36.790Z,46.80
2022-12-15T23:09:05.617Z,47.57
2022-12-15T23:11:39.434Z,47.30
2022-12-15T23:14:16.419Z,46.60
2022-12-15T23:16:45.480Z,47.03
2022-12-15T23:19:26.264Z,44.87
2022-12-15T23:21:57.377Z,45.23
2022-12-15T23:24:33.671Z,42.90
2022-12-15T23:27:04.319Z,43.17
2022-12-15T23:29:35.950Z,42.67
2022-12-15T23:32:03.572Z,42.37
2022-12-15T23:34:32.252Z,43.07
2022-12-15T23:37:03.079Z,40.40
2022-12-15T23:42:15.512Z,40.70
2022-12-15T23:44:45.627Z,39.40
2022-12-15T23:47:16.057Z,39.73
2022-12-15T23:49:43.732Z,40.00
2022-12-15T23:52:12.245Z,39.47
2022-12-15T23:54:43.045Z,39.20
2022-12-15T23:57:10.529Z,37.43
2022-12-15T23:59:39.305Z,34.77
